Time;durP1;ratioP1;P1;durP2;ratioP2;P2;SDS_P1;SDS_P2;PMS_P1;PMS_P2;Temp;Humidity;BMP_temperature;BMP_pressure;BME280_temperature;BME280_humidity;BME280_pressure;Samples;Min_cycle;Max_cycle;Signal;HPM_P1;HPM_P2
2021/12/27 00:02:05;;;;;;;19.33;13.93;;;1.60;99.90;;;;;;5112108;27;20051;-66
2021/12/27 00:04:31;;;;;;;26.00;14.45;;;1.50;99.90;;;;;;5131740;27;20035;-66
2021/12/27 00:06:56;;;;;;;21.10;12.65;;;1.50;99.90;;;;;;5130492;27;20042;-66
2021/12/27 00:09:22;;;;;;;23.02;14.00;;;1.50;99.90;;;;;;5123896;27;20093;-66
2021/12/27 00:11:47;;;;;;;22.70;14.45;;;1.50;99.90;;;;;;5127922;27;20051;-66
2021/12/27 00:14:13;;;;;;;21.30;14.20;;;1.50;99.90;;;;;;5131209;27;20039;-66
2021/12/27 00:16:38;;;;;;;26.80;15.90;;;1.50;99.90;;;;;;5133074;27;20035;-66
2021/12/27 00:19:04;;;;;;;22.67;14.20;;;1.60;99.90;;;;;;5148134;27;20287;-66
2021/12/27 00:21:30;;;;;;;21.45;14.23;;;1.60;99.90;;;;;;5133836;27;20082;-66
2021/12/27 00:23:55;;;;;;;20.98;13.10;;;1.60;99.90;;;;;;5117446;27;20474;-66
2021/12/27 00:26:21;;;;;;;23.95;14.30;;;1.60;99.90;;;;;;5145095;27;20069;-65
2021/12/27 00:28:46;;;;;;;20.30;13.45;;;1.60;99.90;;;;;;5138760;27;20054;-66
2021/12/27 00:31:12;;;;;;;23.10;14.40;;;1.50;99.90;;;;;;5110547;27;20085;-66
2021/12/27 00:33:37;;;;;;;26.38;13.57;;;1.50;99.90;;;;;;5127608;27;20536;-66
2021/12/27 00:36:03;;;;;;;22.20;13.93;;;1.50;99.90;;;;;;5129146;27;20429;-66
2021/12/27 00:38:29;;;;;;;22.23;15.23;;;1.50;99.90;;;;;;5128751;27;20053;-66
2021/12/27 00:40:54;;;;;;;23.67;15.30;;;1.50;99.90;;;;;;5129716;27;20419;-66
2021/12/27 00:43:20;;;;;;;22.23;14.98;;;1.50;99.90;;;;;;5127627;27;20043;-65
2021/12/27 00:45:46;;;;;;;23.48;15.52;;;1.50;99.90;;;;;;5123891;27;20095;-66
2021/12/27 00:48:12;;;;;;;26.85;17.10;;;1.50;99.90;;;;;;5108310;27;20595;-66
2021/12/27 00:50:38;;;;;;;22.98;15.70;;;1.50;99.90;;;;;;5127307;27;20046;-66
2021/12/27 00:53:03;;;;;;;23.80;15.50;;;1.40;99.90;;;;;;5107129;27;20055;-66
2021/12/27 00:55:29;;;;;;;30.48;18.70;;;1.50;99.90;;;;;;5129533;27;20035;-66
2021/12/27 00:57:54;;;;;;;24.83;17.15;;;1.50;99.90;;;;;;5128123;27;20402;-66
2021/12/27 01:00:22;;;;;;;30.35;17.67;;;1.50;99.90;;;;;;5129387;27;20058;-66
2021/12/27 01:02:48;;;;;;;28.70;17.20;;;1.50;99.90;;;;;;5137228;27;20053;-66
2021/12/27 01:05:14;;;;;;;26.52;15.38;;;1.50;99.90;;;;;;5113217;27;20039;-66
2021/12/27 01:07:41;;;;;;;25.70;16.00;;;1.50;99.90;;;;;;5140577;27;20043;-66
2021/12/27 01:13:03;;;;;;;22.98;14.38;;;1.50;99.90;;;;;;5132070;27;20058;-66
2021/12/27 01:16:10;;;;;;;22.52;15.15;;;1.50;99.90;;;;;;5115323;27;20051;-66
2021/12/27 01:18:21;;;;;;;27.70;17.08;;;1.60;99.90;;;;;;5125317;27;20096;-66
2021/12/27 01:20:47;;;;;;;25.80;16.58;;;1.60;99.90;;;;;;5128832;27;20427;-65
2021/12/27 01:23:13;;;;;;;24.75;15.70;;;1.60;99.90;;;;;;5146515;27;20501;-66
2021/12/27 01:25:39;;;;;;;23.60;16.85;;;1.60;99.90;;;;;;5117006;27;20080;-66
2021/12/27 01:28:05;;;;;;;24.95;16.05;;;1.60;99.90;;;;;;5127989;27;20053;-66
2021/12/27 01:30:37;;;;;;;22.48;15.23;;;1.60;99.90;;;;;;5150792;27;20121;-66
2021/12/27 01:33:04;;;;;;;27.10;15.05;;;1.60;99.90;;;;;;5148899;27;20156;-66
2021/12/27 01:35:29;;;;;;;23.98;14.80;;;1.50;99.90;;;;;;5136289;27;20051;-66
2021/12/27 01:37:56;;;;;;;22.63;15.60;;;1.60;99.90;;;;;;5107535;27;20057;-66
2021/12/27 01:40:25;;;;;;;24.98;15.98;;;1.60;99.90;;;;;;5120094;27;20054;-66
2021/12/27 01:43:05;;;;;;;25.38;17.25;;;1.60;99.90;;;;;;5128828;27;20049;-66
2021/12/27 01:45:32;;;;;;;24.90;15.90;;;1.70;99.90;;;;;;5127615;27;20048;-66
2021/12/27 01:47:58;;;;;;;23.83;15.23;;;1.70;99.90;;;;;;5128954;27;20172;-66
2021/12/27 01:50:24;;;;;;;20.45;14.88;;;1.70;99.90;;;;;;5132790;27;20133;-66
2021/12/27 01:52:50;;;;;;;25.45;16.38;;;1.70;99.90;;;;;;5110868;27;20054;-66
2021/12/27 01:55:16;;;;;;;24.58;15.50;;;1.70;99.90;;;;;;5138385;27;20435;-66
2021/12/27 01:57:42;;;;;;;26.08;16.80;;;1.60;99.90;;;;;;5140454;27;20031;-66
2021/12/27 02:00:08;;;;;;;23.23;16.02;;;1.60;99.90;;;;;;5128632;27;20528;-65
2021/12/27 02:02:34;;;;;;;25.60;17.13;;;1.60;99.90;;;;;;5120498;27;20462;-66
2021/12/27 02:04:59;;;;;;;24.83;16.27;;;1.60;99.90;;;;;;5117802;27;20145;-66
2021/12/27 02:07:25;;;;;;;26.23;17.45;;;1.70;99.90;;;;;;5127255;27;20043;-65
2021/12/27 02:10:02;;;;;;;26.63;16.48;;;1.70;99.90;;;;;;5112531;27;20042;-66
2021/12/27 02:12:29;;;;;;;25.83;16.50;;;1.60;99.90;;;;;;5116936;27;20066;-66
2021/12/27 02:14:55;;;;;;;26.13;16.38;;;1.60;99.90;;;;;;5129144;27;20062;-66
2021/12/27 02:17:20;;;;;;;27.85;16.88;;;1.60;99.90;;;;;;5124946;28;20561;-65
2021/12/27 02:19:50;;;;;;;26.05;16.77;;;1.60;99.90;;;;;;5135173;27;20050;-66
2021/12/27 02:22:16;;;;;;;26.60;16.65;;;1.60;99.90;;;;;;5126467;28;20565;-67
2021/12/27 02:24:41;;;;;;;28.85;18.40;;;1.60;99.90;;;;;;5136300;27;20118;-67
2021/12/27 02:27:07;;;;;;;27.83;16.88;;;1.60;99.90;;;;;;5147483;27;20439;-67
2021/12/27 02:29:33;;;;;;;23.48;16.05;;;1.60;99.90;;;;;;5128834;28;20046;-67
2021/12/27 02:31:59;;;;;;;25.02;16.52;;;1.60;99.90;;;;;;5129413;27;20525;-67
2021/12/27 02:34:25;;;;;;;22.80;15.57;;;1.60;99.90;;;;;;5137448;27;20046;-67
2021/12/27 02:36:51;;;;;;;23.67;15.50;;;1.70;99.90;;;;;;5136927;27;20042;-67
2021/12/27 02:39:17;;;;;;;25.80;15.32;;;1.60;99.90;;;;;;5153726;27;20035;-66
2021/12/27 02:41:43;;;;;;;23.55;15.30;;;1.60;99.90;;;;;;5154347;27;20046;-67
2021/12/27 02:44:09;;;;;;;22.38;15.38;;;1.70;99.90;;;;;;5136957;27;20047;-67
2021/12/27 02:46:35;;;;;;;22.55;14.38;;;1.70;99.90;;;;;;5136545;27;20122;-67
2021/12/27 02:49:00;;;;;;;26.25;16.80;;;1.70;99.90;;;;;;5134948;27;20555;-67
2021/12/27 02:51:26;;;;;;;26.45;16.48;;;1.70;99.90;;;;;;5109079;27;20077;-67
2021/12/27 02:53:51;;;;;;;31.42;17.42;;;1.70;99.90;;;;;;5131693;27;20042;-67
2021/12/27 02:56:18;;;;;;;25.88;16.80;;;1.70;99.90;;;;;;5135415;27;20031;-67
2021/12/27 02:58:44;;;;;;;22.35;16.42;;;1.70;99.90;;;;;;5140848;27;20042;-67
2021/12/27 03:01:14;;;;;;;27.10;17.00;;;1.80;99.90;;;;;;5153672;27;20043;-67
2021/12/27 03:03:40;;;;;;;25.83;17.52;;;1.70;99.90;;;;;;5135392;27;20413;-67
2021/12/27 03:06:07;;;;;;;27.70;17.85;;;1.80;99.90;;;;;;5117049;27;20577;-67
2021/12/27 03:08:33;;;;;;;31.08;18.20;;;1.70;99.90;;;;;;5133291;27;20070;-67
2021/12/27 03:11:00;;;;;;;28.73;16.42;;;1.70;99.90;;;;;;5126986;27;20116;-67
2021/12/27 03:13:31;;;;;;;24.35;15.73;;;1.70;99.90;;;;;;5127960;27;20059;-67
2021/12/27 03:16:00;;;;;;;27.65;15.85;;;1.70;99.90;;;;;;5132069;27;20039;-67
2021/12/27 03:18:26;;;;;;;28.20;16.92;;;1.70;99.90;;;;;;5124157;27;20048;-66
2021/12/27 03:20:53;;;;;;;24.25;15.82;;;1.80;99.90;;;;;;5110550;27;20087;-67
2021/12/27 03:23:20;;;;;;;28.55;18.00;;;1.70;99.90;;;;;;5131568;27;20092;-67
2021/12/27 03:25:45;;;;;;;26.17;16.70;;;1.80;99.90;;;;;;5127684;27;20043;-67
2021/12/27 03:28:12;;;;;;;23.42;15.90;;;1.80;99.90;;;;;;5130162;27;20050;-67
2021/12/27 03:30:38;;;;;;;26.30;17.02;;;1.90;99.90;;;;;;5102976;27;20055;-67
2021/12/27 03:33:06;;;;;;;25.48;16.05;;;1.80;99.90;;;;;;5130777;27;20490;-67
2021/12/27 03:35:40;;;;;;;25.80;16.30;;;1.80;99.90;;;;;;5114275;27;20038;-67
2021/12/27 03:38:08;;;;;;;26.42;16.30;;;1.80;99.90;;;;;;5101990;27;20667;-67
2021/12/27 03:40:35;;;;;;;26.35;16.35;;;1.80;99.90;;;;;;5127770;27;20031;-67
2021/12/27 03:43:01;;;;;;;27.58;16.80;;;1.80;99.90;;;;;;5131559;27;20058;-67
2021/12/27 03:45:34;;;;;;;23.75;16.20;;;1.80;99.90;;;;;;5126659;27;20557;-67
2021/12/27 03:48:00;;;;;;;29.20;17.17;;;1.80;99.90;;;;;;5131890;27;20058;-67
2021/12/27 03:50:26;;;;;;;26.30;16.48;;;1.80;99.90;;;;;;5143809;27;20038;-67
2021/12/27 03:52:53;;;;;;;22.95;15.05;;;1.80;99.90;;;;;;5110649;27;20406;-67
2021/12/27 03:55:20;;;;;;;23.35;16.17;;;1.80;99.90;;;;;;5122846;27;20505;-68
2021/12/27 03:57:52;;;;;;;22.23;15.57;;;1.80;99.90;;;;;;5148049;27;20066;-68
2021/12/27 04:02:50;;;;;;;23.20;16.27;;;1.80;99.90;;;;;;5142287;27;20047;-68
2021/12/27 04:05:16;;;;;;;26.58;16.20;;;1.80;99.90;;;;;;5131029;27;20536;-67
2021/12/27 04:07:49;;;;;;;25.88;16.55;;;1.80;99.90;;;;;;5112381;27;20566;-67
2021/12/27 04:10:14;;;;;;;29.83;17.95;;;1.80;99.90;;;;;;5137328;27;20039;-67
2021/12/27 04:12:40;;;;;;;24.85;16.50;;;1.80;99.90;;;;;;5138335;27;20499;-67
2021/12/27 04:15:08;;;;;;;27.25;17.05;;;1.80;99.90;;;;;;5128445;27;20418;-67
2021/12/27 04:17:35;;;;;;;27.73;17.63;;;1.80;99.90;;;;;;5136699;27;20390;-67
2021/12/27 04:20:01;;;;;;;26.33;17.17;;;1.90;99.90;;;;;;5136350;27;20069;-67
2021/12/27 04:22:27;;;;;;;26.13;18.02;;;1.80;99.90;;;;;;5125541;27;20054;-67
2021/12/27 04:24:52;;;;;;;29.80;19.10;;;1.80;99.90;;;;;;5130969;27;20550;-67
2021/12/27 04:27:20;;;;;;;31.58;20.45;;;1.80;99.90;;;;;;5112106;27;20074;-67
2021/12/27 04:29:45;;;;;;;30.63;19.38;;;1.70;99.90;;;;;;5109911;27;20035;-67
2021/12/27 04:32:11;;;;;;;31.08;19.45;;;1.70;99.90;;;;;;5129760;27;20516;-67
2021/12/27 04:34:37;;;;;;;33.22;18.75;;;1.70;99.90;;;;;;5127731;27;20050;-67
2021/12/27 04:37:02;;;;;;;30.80;19.40;;;1.70;99.90;;;;;;5107560;27;20464;-67
2021/12/27 04:39:28;;;;;;;30.95;19.42;;;1.70;99.90;;;;;;5132439;27;20079;-67
2021/12/27 04:41:54;;;;;;;33.42;20.15;;;1.70;99.90;;;;;;5133015;27;20131;-66
2021/12/27 04:44:20;;;;;;;32.78;20.77;;;1.70;99.90;;;;;;5127509;27;20084;-67
2021/12/27 04:46:46;;;;;;;32.83;19.40;;;1.70;99.90;;;;;;5131268;27;20039;-68
2021/12/27 04:49:11;;;;;;;31.50;19.40;;;1.70;99.90;;;;;;5113290;27;20111;-67
2021/12/27 04:51:37;;;;;;;32.50;21.20;;;1.70;99.90;;;;;;5129127;27;20129;-67
2021/12/27 04:54:03;;;;;;;35.95;20.88;;;1.70;99.90;;;;;;5128254;27;20044;-67
2021/12/27 04:56:29;;;;;;;31.83;21.48;;;1.70;99.90;;;;;;5134018;27;20440;-67
2021/12/27 04:58:54;;;;;;;39.85;22.88;;;1.60;99.90;;;;;;5128456;27;20039;-67
2021/12/27 05:01:22;;;;;;;33.47;21.30;;;1.60;99.90;;;;;;5134414;27;20510;-67
2021/12/27 05:03:48;;;;;;;34.92;22.73;;;1.60;99.90;;;;;;5127050;27;20432;-67
2021/12/27 05:06:14;;;;;;;38.20;23.05;;;1.60;99.90;;;;;;5124023;27;20035;-67
2021/12/27 05:08:41;;;;;;;33.95;21.27;;;1.70;99.90;;;;;;5129755;27;20035;-66
2021/12/27 05:11:08;;;;;;;37.25;20.92;;;1.70;99.90;;;;;;5111309;27;20043;-67
2021/12/27 05:13:34;;;;;;;37.63;21.85;;;1.70;99.90;;;;;;5127978;27;20047;-67
2021/12/27 05:16:01;;;;;;;37.28;21.98;;;1.70;99.90;;;;;;5139434;27;20083;-67
2021/12/27 05:18:27;;;;;;;39.58;24.77;;;1.70;99.90;;;;;;5136197;27;20378;-67
2021/12/27 05:20:53;;;;;;;39.17;22.75;;;1.70;99.90;;;;;;5139421;27;20039;-67
2021/12/27 05:23:18;;;;;;;36.70;21.48;;;1.70;99.90;;;;;;5129287;27;20051;-68
2021/12/27 05:25:44;;;;;;;31.83;21.65;;;1.70;99.90;;;;;;5129869;27;20041;-68
2021/12/27 05:28:10;;;;;;;42.63;22.77;;;1.70;99.90;;;;;;5148585;27;20039;-67
2021/12/27 05:30:36;;;;;;;44.35;22.80;;;1.70;99.90;;;;;;5130110;27;20794;-67
2021/12/27 05:33:03;;;;;;;38.50;21.45;;;1.70;99.90;;;;;;5128411;27;20097;-67
2021/12/27 05:35:28;;;;;;;43.72;26.15;;;1.70;99.90;;;;;;5115945;27;20176;-68
2021/12/27 05:37:54;;;;;;;37.50;22.38;;;1.70;99.90;;;;;;5111222;27;20123;-68
2021/12/27 05:40:22;;;;;;;35.60;20.70;;;1.80;99.90;;;;;;5129345;27;20051;-68
2021/12/27 05:42:53;;;;;;;34.75;22.17;;;1.80;99.90;;;;;;5124515;27;20104;-68
2021/12/27 05:45:19;;;;;;;33.90;20.65;;;1.70;99.90;;;;;;5128861;27;20039;-68
2021/12/27 05:47:45;;;;;;;38.33;21.13;;;1.70;99.90;;;;;;5127732;27;20031;-68
2021/12/27 05:50:12;;;;;;;44.55;24.40;;;1.70;99.90;;;;;;5108539;27;20124;-68
2021/12/27 05:52:38;;;;;;;37.05;22.65;;;1.70;99.90;;;;;;5127762;27;20658;-68
2021/12/27 05:55:06;;;;;;;34.03;22.55;;;1.80;99.90;;;;;;5128547;27;20496;-68
2021/12/27 05:57:32;;;;;;;36.28;21.45;;;1.80;99.90;;;;;;5111222;27;20059;-68
2021/12/27 05:59:57;;;;;;;37.83;22.00;;;1.80;99.90;;;;;;5129272;27;20068;-68
2021/12/27 06:02:23;;;;;;;47.75;23.73;;;1.90;99.90;;;;;;5129153;27;20055;-68
2021/12/27 06:04:50;;;;;;;40.20;24.05;;;1.80;99.90;;;;;;5121707;27;20062;-68
2021/12/27 06:07:16;;;;;;;43.33;23.65;;;1.80;99.90;;;;;;5147864;27;20680;-68
2021/12/27 06:09:41;;;;;;;39.03;21.63;;;1.70;99.90;;;;;;5134916;27;20070;-68
2021/12/27 06:12:07;;;;;;;40.22;22.30;;;1.80;99.90;;;;;;5127717;27;20175;-68
2021/12/27 06:14:33;;;;;;;39.80;23.33;;;1.80;99.90;;;;;;5128963;27;20068;-68
2021/12/27 06:16:58;;;;;;;38.88;22.27;;;1.80;99.90;;;;;;5110051;28;20482;-68
2021/12/27 06:19:24;;;;;;;41.80;23.70;;;1.80;99.90;;;;;;5129035;27;20050;-68
2021/12/27 06:21:50;;;;;;;44.22;23.98;;;1.80;99.90;;;;;;5129927;27;20039;-68
2021/12/27 06:24:16;;;;;;;40.38;23.98;;;1.80;99.90;;;;;;5130798;27;20039;-67
2021/12/27 06:26:42;;;;;;;47.25;24.42;;;1.80;99.90;;;;;;5110692;28;20067;-68
2021/12/27 06:29:07;;;;;;;43.42;23.42;;;1.80;99.90;;;;;;5136463;27;20049;-68
2021/12/27 06:31:33;;;;;;;47.20;23.60;;;1.80;99.90;;;;;;5121607;27;20039;-68
2021/12/27 06:33:58;;;;;;;38.45;22.83;;;1.90;99.90;;;;;;5137373;27;20498;-68
2021/12/27 06:36:24;;;;;;;42.72;23.92;;;1.90;99.90;;;;;;5128724;28;20047;-67
2021/12/27 06:38:50;;;;;;;40.92;22.30;;;1.80;99.90;;;;;;5128094;28;20118;-67
2021/12/27 06:41:16;;;;;;;43.85;24.67;;;1.80;99.90;;;;;;5125270;27;20040;-67
2021/12/27 06:43:41;;;;;;;43.45;23.48;;;1.90;99.90;;;;;;5134965;27;20040;-68
2021/12/27 06:46:07;;;;;;;40.88;23.42;;;1.90;99.90;;;;;;5123351;27;20040;-68
2021/12/27 06:48:32;;;;;;;48.15;23.75;;;1.90;99.90;;;;;;5141708;27;20049;-68
2021/12/27 06:50:58;;;;;;;51.28;24.30;;;1.90;99.90;;;;;;5111008;28;20043;-68
2021/12/27 06:53:28;;;;;;;55.38;25.38;;;1.90;99.90;;;;;;5111759;27;20057;-68
2021/12/27 06:55:54;;;;;;;52.17;26.52;;;2.00;99.90;;;;;;5110197;28;20129;-67
2021/12/27 06:58:19;;;;;;;47.72;24.08;;;2.00;99.90;;;;;;5128294;28;20439;-67
2021/12/27 07:00:45;;;;;;;45.92;24.52;;;2.00;99.90;;;;;;5131562;27;20121;-68
2021/12/27 07:03:11;;;;;;;49.95;27.25;;;2.00;99.90;;;;;;5149731;27;20146;-67
2021/12/27 07:05:37;;;;;;;47.85;24.25;;;2.00;99.90;;;;;;5147786;27;20439;-67
2021/12/27 07:08:03;;;;;;;53.60;25.63;;;2.00;99.90;;;;;;5128589;28;20051;-67
2021/12/27 07:10:28;;;;;;;52.92;25.77;;;2.10;99.90;;;;;;5109852;28;20046;-67
2021/12/27 07:12:54;;;;;;;47.72;24.20;;;2.10;99.90;;;;;;5128466;27;20100;-67
2021/12/27 07:15:19;;;;;;;49.38;25.52;;;2.10;99.90;;;;;;5129285;28;20581;-67
2021/12/27 07:17:45;;;;;;;44.95;23.70;;;2.10;99.90;;;;;;5129319;27;20390;-68
2021/12/27 07:20:11;;;;;;;44.35;24.40;;;2.10;99.90;;;;;;5112974;27;20406;-68
2021/12/27 07:22:37;;;;;;;50.65;25.90;;;2.20;99.90;;;;;;5145711;27;20043;-68
2021/12/27 07:25:03;;;;;;;46.20;25.08;;;2.20;99.90;;;;;;5135406;27;20043;-68
2021/12/27 07:27:29;;;;;;;50.38;24.40;;;2.10;99.90;;;;;;5137054;27;20032;-68
2021/12/27 07:29:55;;;;;;;52.63;25.35;;;2.20;99.90;;;;;;5139038;27;20107;-68
2021/12/27 07:32:20;;;;;;;53.13;26.25;;;2.20;99.90;;;;;;5129444;27;20054;-69
2021/12/27 07:34:47;;;;;;;52.50;25.20;;;2.20;99.90;;;;;;5145860;27;20477;-68
2021/12/27 07:37:15;;;;;;;51.92;24.10;;;2.20;99.90;;;;;;5133370;27;20480;-68
2021/12/27 07:39:41;;;;;;;54.28;24.70;;;2.20;99.90;;;;;;5130361;27;20057;-68
2021/12/27 07:42:07;;;;;;;56.10;27.23;;;2.20;99.90;;;;;;5142452;27;20397;-69
2021/12/27 07:44:32;;;;;;;49.25;25.15;;;2.20;99.90;;;;;;5130705;27;20390;-68
2021/12/27 07:46:58;;;;;;;56.58;28.48;;;2.20;99.90;;;;;;5130409;27;20417;-68
2021/12/27 07:49:23;;;;;;;55.45;25.90;;;2.20;99.90;;;;;;5131420;27;20053;-68
2021/12/27 07:51:49;;;;;;;51.05;26.23;;;2.20;99.90;;;;;;5124345;27;20046;-68
2021/12/27 07:54:14;;;;;;;54.08;24.85;;;2.20;99.90;;;;;;5125187;27;20051;-68
2021/12/27 07:56:40;;;;;;;47.97;25.25;;;2.20;99.90;;;;;;5131626;27;20043;-68
2021/12/27 07:59:06;;;;;;;56.00;26.88;;;2.20;99.90;;;;;;5129981;27;20035;-68
2021/12/27 08:01:36;;;;;;;55.20;27.33;;;2.30;99.90;;;;;;5129219;27;20046;-68
2021/12/27 08:04:03;;;;;;;62.17;28.83;;;2.20;99.90;;;;;;5140750;27;20138;-68
2021/12/27 08:06:29;;;;;;;62.08;26.85;;;2.30;99.90;;;;;;5130469;27;20051;-68
2021/12/27 08:08:55;;;;;;;55.65;28.42;;;2.30;99.90;;;;;;5130119;27;20146;-68
2021/12/27 08:11:21;;;;;;;51.20;26.60;;;2.30;99.90;;;;;;5112624;27;20044;-69
2021/12/27 08:13:47;;;;;;;63.00;29.35;;;2.20;99.90;;;;;;5131213;27;20085;-69
2021/12/27 08:16:12;;;;;;;59.72;29.25;;;2.20;99.90;;;;;;5117889;27;20051;-69
2021/12/27 08:18:41;;;;;;;54.15;27.52;;;2.20;99.90;;;;;;5110628;27;20043;-69
2021/12/27 08:21:06;;;;;;;67.13;30.67;;;2.20;99.90;;;;;;5130955;27;20119;-69
2021/12/27 08:23:32;;;;;;;61.95;31.20;;;2.30;99.90;;;;;;5130751;27;20079;-68
2021/12/27 08:25:57;;;;;;;72.03;29.20;;;2.20;99.90;;;;;;5127586;27;20078;-68
2021/12/27 08:28:23;;;;;;;64.85;28.83;;;2.30;99.90;;;;;;5130365;27;20043;-68
2021/12/27 08:30:48;;;;;;;87.25;33.30;;;2.30;99.90;;;;;;5130020;27;20043;-69
2021/12/27 08:33:14;;;;;;;60.42;28.67;;;2.30;99.90;;;;;;5130922;27;20062;-69
2021/12/27 08:35:40;;;;;;;64.45;29.35;;;2.30;99.90;;;;;;5108656;27;20383;-69
2021/12/27 08:38:06;;;;;;;74.57;31.85;;;2.30;99.90;;;;;;5112092;27;20059;-69
2021/12/27 08:40:32;;;;;;;74.90;31.02;;;2.30;99.90;;;;;;5112249;27;20051;-69
2021/12/27 08:42:58;;;;;;;74.50;30.60;;;2.30;99.90;;;;;;5128999;27;20887;-69
2021/12/27 08:45:23;;;;;;;81.57;32.22;;;2.30;99.90;;;;;;5137962;27;20042;-69
2021/12/27 08:47:49;;;;;;;67.30;28.73;;;2.30;99.90;;;;;;5130281;27;20078;-69
2021/12/27 08:50:17;;;;;;;88.30;29.90;;;2.40;99.90;;;;;;5127400;27;20054;-68
2021/12/27 08:52:47;;;;;;;72.43;29.38;;;2.30;99.90;;;;;;5119251;27;20760;-68
2021/12/27 08:55:14;;;;;;;83.68;32.88;;;2.40;99.90;;;;;;5142104;27;20129;-68
2021/12/27 08:57:40;;;;;;;70.95;30.65;;;2.40;99.90;;;;;;5141398;27;20035;-67
2021/12/27 09:00:09;;;;;;;75.07;30.27;;;2.40;99.90;;;;;;5132089;27;20050;-67
2021/12/27 09:02:34;;;;;;;76.80;30.90;;;2.40;99.90;;;;;;5126367;27;20047;-67
2021/12/27 09:05:00;;;;;;;76.47;29.50;;;2.40;99.90;;;;;;5116989;27;20049;-68
2021/12/27 09:07:26;;;;;;;78.88;31.42;;;2.40;99.90;;;;;;5136043;27;20073;-69
2021/12/27 09:09:52;;;;;;;72.93;30.38;;;2.50;99.90;;;;;;5129235;27;20050;-70
2021/12/27 09:12:17;;;;;;;87.95;33.15;;;2.40;99.90;;;;;;5130411;27;20044;-69
2021/12/27 09:14:43;;;;;;;60.15;26.40;;;2.40;99.90;;;;;;5141331;27;20525;-69
2021/12/27 09:17:09;;;;;;;83.53;29.10;;;2.50;99.90;;;;;;5120456;27;20043;-70
2021/12/27 09:19:34;;;;;;;87.25;33.38;;;2.50;99.90;;;;;;5120601;27;20375;-69
2021/12/27 09:22:00;;;;;;;64.95;30.42;;;2.50;99.90;;;;;;5140563;27;20635;-69
2021/12/27 09:24:26;;;;;;;89.70;33.65;;;2.50;99.90;;;;;;5130116;27;20520;-68
2021/12/27 09:26:51;;;;;;;74.57;31.85;;;2.50;99.90;;;;;;5125307;27;20047;-68
2021/12/27 09:29:17;;;;;;;71.97;29.15;;;2.50;99.90;;;;;;5129319;27;20118;-68
2021/12/27 09:31:43;;;;;;;66.97;30.50;;;2.60;99.90;;;;;;5116358;27;20131;-69
2021/12/27 09:34:08;;;;;;;63.95;28.20;;;2.60;99.90;;;;;;5128833;27;20070;-68
2021/12/27 09:36:34;;;;;;;78.15;28.75;;;2.60;99.90;;;;;;5129997;27;20039;-69
2021/12/27 09:38:59;;;;;;;69.18;30.63;;;2.60;99.90;;;;;;5124090;27;20133;-69
2021/12/27 09:41:25;;;;;;;71.72;28.77;;;2.60;99.90;;;;;;5113557;27;20059;-69
2021/12/27 09:43:53;;;;;;;65.22;30.30;;;2.60;99.90;;;;;;5128172;27;20075;-69
2021/12/27 09:46:19;;;;;;;84.32;32.22;;;2.60;99.90;;;;;;5126643;27;20095;-68
2021/12/27 09:48:46;;;;;;;73.35;32.83;;;2.60;99.90;;;;;;5124976;27;20043;-68
2021/12/27 09:51:12;;;;;;;74.05;31.80;;;2.70;99.90;;;;;;5107412;27;20074;-68
2021/12/27 09:53:39;;;;;;;70.50;29.17;;;2.70;99.90;;;;;;5122032;27;20068;-68
2021/12/27 09:56:12;;;;;;;77.55;29.15;;;2.70;99.90;;;;;;5128059;27;20055;-68
2021/12/27 09:58:38;;;;;;;70.30;29.15;;;2.70;99.90;;;;;;5125307;27;20214;-68
2021/12/27 10:01:06;;;;;;;66.03;27.98;;;2.70;99.90;;;;;;5126763;27;20074;-68
2021/12/27 10:03:44;;;;;;;71.90;28.20;;;2.70;99.90;;;;;;5129356;27;20043;-68
2021/12/27 10:06:11;;;;;;;77.97;30.35;;;2.70;99.90;;;;;;5106253;27;20054;-68
2021/12/27 10:08:37;;;;;;;66.60;29.42;;;2.70;99.90;;;;;;5128590;27;20043;-68
2021/12/27 10:11:02;;;;;;;77.00;29.52;;;2.80;99.90;;;;;;5122366;27;20045;-66
2021/12/27 10:13:29;;;;;;;85.90;31.67;;;2.70;99.90;;;;;;5109419;28;20047;-68
2021/12/27 10:15:54;;;;;;;78.82;28.88;;;2.80;99.90;;;;;;5111248;27;20478;-68
2021/12/27 10:18:22;;;;;;;61.38;25.48;;;2.80;99.90;;;;;;5131920;27;20050;-68
2021/12/27 10:20:48;;;;;;;63.88;26.40;;;2.80;99.90;;;;;;5109275;27;20394;-68
2021/12/27 10:23:18;;;;;;;55.47;24.45;;;2.80;99.90;;;;;;5114926;28;20051;-68
2021/12/27 10:25:43;;;;;;;63.42;26.52;;;2.90;99.90;;;;;;5129194;27;20038;-68
2021/12/27 10:28:09;;;;;;;64.85;24.95;;;2.90;99.90;;;;;;5128723;28;20043;-67
2021/12/27 10:30:43;;;;;;;65.78;26.10;;;2.90;99.90;;;;;;5118450;28;20039;-68
2021/12/27 10:33:24;;;;;;;66.78;29.65;;;2.90;99.90;;;;;;5123928;27;20082;-67
2021/12/27 10:35:55;;;;;;;68.45;25.13;;;2.90;99.90;;;;;;5124067;27;20039;-67
2021/12/27 10:38:31;;;;;;;78.15;27.17;;;2.90;99.90;;;;;;5121385;28;20039;-67
2021/12/27 10:40:59;;;;;;;75.80;29.15;;;2.90;99.90;;;;;;5123123;28;20167;-67
2021/12/27 10:43:35;;;;;;;70.40;26.73;;;3.00;99.90;;;;;;5119874;27;20791;-67
2021/12/27 10:46:03;;;;;;;73.07;30.67;;;3.00;99.90;;;;;;5124554;27;20043;-67
2021/12/27 10:48:36;;;;;;;57.88;25.48;;;3.00;99.90;;;;;;5128010;28;20448;-66
2021/12/27 10:51:03;;;;;;;51.95;24.63;;;3.10;99.90;;;;;;5119291;27;20790;-65
2021/12/27 10:53:52;;;;;;;66.03;26.55;;;3.10;99.90;;;;;;5128280;27;20039;-66
2021/12/27 10:56:21;;;;;;;62.30;24.58;;;3.20;99.90;;;;;;5128619;27;20039;-67
2021/12/27 10:58:52;;;;;;;73.38;27.75;;;3.30;99.90;;;;;;5138982;27;20085;-66
2021/12/27 11:01:19;;;;;;;68.20;26.73;;;3.30;99.90;;;;;;5131644;27;20043;-68
2021/12/27 11:03:50;;;;;;;76.45;26.48;;;3.20;99.90;;;;;;5110761;27;20054;-68
2021/12/27 11:06:22;;;;;;;87.00;27.55;;;3.30;99.90;;;;;;5126817;27;20047;-66
2021/12/27 11:08:48;;;;;;;78.88;27.90;;;3.30;99.90;;;;;;5121042;27;20182;-68
2021/12/27 11:11:16;;;;;;;63.67;26.25;;;3.30;99.90;;;;;;5122718;27;20126;-67
2021/12/27 11:13:43;;;;;;;65.50;26.35;;;3.40;99.90;;;;;;5134058;27;20047;-66
2021/12/27 11:16:09;;;;;;;68.50;28.48;;;3.40;99.90;;;;;;5124956;27;20051;-67
2021/12/27 11:18:35;;;;;;;77.18;29.35;;;3.40;99.90;;;;;;5134500;27;20043;-67
2021/12/27 11:21:11;;;;;;;70.75;29.13;;;3.40;99.90;;;;;;5112386;27;20384;-66
2021/12/27 11:23:38;;;;;;;63.53;29.10;;;3.40;99.90;;;;;;5129450;27;20039;-66
2021/12/27 11:26:11;;;;;;;82.82;26.15;;;3.50;99.90;;;;;;5125522;27;20053;-66
2021/12/27 11:28:39;;;;;;;65.60;27.92;;;3.50;99.90;;;;;;5123593;27;20425;-69
2021/12/27 11:31:08;;;;;;;65.82;25.88;;;3.50;99.90;;;;;;5129466;27;20130;-65
2021/12/27 11:33:53;;;;;;;74.93;27.23;;;3.40;99.90;;;;;;5089726;28;20571;-67
2021/12/27 11:36:19;;;;;;;66.03;28.63;;;3.50;99.90;;;;;;5084107;28;20037;-67
2021/12/27 11:38:45;;;;;;;70.03;28.17;;;3.40;99.90;;;;;;5095302;28;20613;-67
2021/12/27 11:41:34;;;;;;;55.60;26.70;;;3.50;99.90;;;;;;5084003;28;20048;-66
2021/12/27 11:44:06;;;;;;;77.53;29.17;;;3.50;99.90;;;;;;5080729;28;20040;-66
2021/12/27 11:46:51;;;;;;;71.82;30.77;;;3.60;99.90;;;;;;5093566;28;20036;-66
2021/12/27 11:49:33;;;;;;;56.15;27.15;;;3.70;99.90;;;;;;5088787;28;20071;-66
2021/12/27 11:52:34;;;;;;;73.68;29.10;;;3.80;99.90;;;;;;5084822;28;20139;-66
2021/12/27 11:55:04;;;;;;;66.97;26.15;;;3.70;99.90;;;;;;5070749;28;20110;-66
2021/12/27 11:57:41;;;;;;;59.45;25.77;;;3.70;99.90;;;;;;5084472;28;20048;-66
2021/12/27 12:00:21;;;;;;;72.72;29.52;;;3.70;99.90;;;;;;5087768;28;20561;-66
2021/12/27 12:02:48;;;;;;;76.70;29.13;;;3.80;99.90;;;;;;5087456;28;20075;-66
2021/12/27 12:05:43;;;;;;;67.90;28.83;;;3.70;99.90;;;;;;5082641;28;20047;-68
2021/12/27 12:08:17;;;;;;;64.30;28.10;;;3.80;99.90;;;;;;5085903;28;20100;-68
2021/12/27 12:10:50;;;;;;;52.08;25.20;;;3.80;99.90;;;;;;5088143;28;20040;-67
2021/12/27 12:13:26;;;;;;;69.28;28.58;;;3.80;99.90;;;;;;5083699;28;20130;-68
2021/12/27 12:16:07;;;;;;;79.35;27.73;;;3.80;99.90;;;;;;5076205;28;20497;-68
2021/12/27 12:18:33;;;;;;;63.47;28.98;;;3.80;99.90;;;;;;5083321;28;20048;-68
2021/12/27 12:21:00;;;;;;;64.68;28.55;;;3.80;99.90;;;;;;5088114;28;20577;-68
2021/12/27 12:23:26;;;;;;;67.93;27.45;;;3.80;99.90;;;;;;5087826;28;20135;-68
2021/12/27 12:25:58;;;;;;;77.43;28.77;;;3.80;99.90;;;;;;5090020;28;20127;-68
2021/12/27 12:28:24;;;;;;;76.82;30.92;;;3.80;99.90;;;;;;5086964;28;20131;-68
2021/12/27 12:30:51;;;;;;;74.72;29.48;;;3.90;99.90;;;;;;5085539;28;20127;-68
2021/12/27 12:33:22;;;;;;;73.10;30.65;;;3.90;99.90;;;;;;5121138;27;20051;-67
2021/12/27 12:35:51;;;;;;;65.10;26.35;;;3.90;99.90;;;;;;5107514;27;20050;-68
2021/12/27 12:38:24;;;;;;;85.50;28.95;;;3.90;99.90;;;;;;5109285;27;20043;-67
2021/12/27 12:41:22;;;;;;;76.40;29.10;;;4.00;99.90;;;;;;5112044;27;20159;-68
2021/12/27 12:43:51;;;;;;;89.00;30.63;;;4.00;99.90;;;;;;5132127;27;20031;-68